sensor_id;sensor_type;location;lat;lon;timestamp;P1;durP1;ratioP1;P2;durP2;ratioP2
68985;SDS011;56035;37.534;-122.308;2023-03-19T00:02:51;7.43;;;3.20;;
68985;SDS011;56035;37.534;-122.308;2023-03-19T00:06:15;8.80;;;3.35;;
68985;SDS011;56035;37.534;-122.308;2023-03-19T00:09:41;8.82;;;3.35;;
68985;SDS011;56035;37.534;-122.308;2023-03-19T00:13:06;7.80;;;3.92;;
68985;SDS011;56035;37.534;-122.308;2023-03-19T00:16:31;11.70;;;4.70;;
68985;SDS011;56035;37.534;-122.308;2023-03-19T00:19:56;10.10;;;3.90;;
68985;SDS011;56035;37.534;-122.308;2023-03-19T00:23:21;9.02;;;4.20;;
68985;SDS011;56035;37.534;-122.308;2023-03-19T00:26:48;8.65;;;3.83;;
68985;SDS011;56035;37.534;-122.308;2023-03-19T00:30:13;9.70;;;3.65;;
68985;SDS011;56035;37.534;-122.308;2023-03-19T00:33:39;7.78;;;3.42;;
68985;SDS011;56035;37.534;-122.308;2023-03-19T00:37:04;9.57;;;4.00;;
68985;SDS011;56035;37.534;-122.308;2023-03-19T00:40:29;8.38;;;3.72;;
68985;SDS011;56035;37.534;-122.308;2023-03-19T00:43:54;9.10;;;4.05;;
68985;SDS011;56035;37.534;-122.308;2023-03-19T00:47:20;9.27;;;3.50;;
68985;SDS011;56035;37.534;-122.308;2023-03-19T00:50:46;7.03;;;3.40;;
68985;SDS011;56035;37.534;-122.308;2023-03-19T00:54:11;8.98;;;3.35;;
68985;SDS011;56035;37.534;-122.308;2023-03-19T00:57:36;5.32;;;2.10;;
68985;SDS011;56035;37.534;-122.308;2023-03-19T01:01:03;6.47;;;2.10;;
68985;SDS011;56035;37.534;-122.308;2023-03-19T01:04:28;4.20;;;1.70;;
68985;SDS011;56035;37.534;-122.308;2023-03-19T01:07:53;4.82;;;2.00;;
68985;SDS011;56035;37.534;-122.308;2023-03-19T01:11:18;3.08;;;1.65;;
68985;SDS011;56035;37.534;-122.308;2023-03-19T01:14:43;5.68;;;1.83;;
68985;SDS011;56035;37.534;-122.308;2023-03-19T01:18:09;6.03;;;1.75;;
68985;SDS011;56035;37.534;-122.308;2023-03-19T01:21:34;4.85;;;1.60;;
68985;SDS011;56035;37.534;-122.308;2023-03-19T01:25:03;3.42;;;1.48;;
68985;SDS011;56035;37.534;-122.308;2023-03-19T01:28:29;4.57;;;1.58;;
68985;SDS011;56035;37.534;-122.308;2023-03-19T01:31:53;5.15;;;1.50;;
68985;SDS011;56035;37.534;-122.308;2023-03-19T01:35:18;4.63;;;1.75;;
68985;SDS011;56035;37.534;-122.308;2023-03-19T01:38:43;4.65;;;1.80;;
68985;SDS011;56035;37.534;-122.308;2023-03-19T01:42:09;4.28;;;1.90;;
68985;SDS011;56035;37.534;-122.308;2023-03-19T01:45:40;5.30;;;1.90;;
68985;SDS011;56035;37.534;-122.308;2023-03-19T01:49:06;4.30;;;2.40;;
68985;SDS011;56035;37.534;-122.308;2023-03-19T01:52:35;8.35;;;2.70;;
68985;SDS011;56035;37.534;-122.308;2023-03-19T01:59:43;4.97;;;2.50;;
68985;SDS011;56035;37.534;-122.308;2023-03-19T02:03:09;6.15;;;2.38;;
68985;SDS011;56035;37.534;-122.308;2023-03-19T02:06:35;5.15;;;2.00;;
68985;SDS011;56035;37.534;-122.308;2023-03-19T02:10:02;3.63;;;1.98;;
68985;SDS011;56035;37.534;-122.308;2023-03-19T02:13:28;4.75;;;1.77;;
68985;SDS011;56035;37.534;-122.308;2023-03-19T02:16:53;2.50;;;1.60;;
68985;SDS011;56035;37.534;-122.308;2023-03-19T02:20:36;4.70;;;1.58;;
68985;SDS011;56035;37.534;-122.308;2023-03-19T02:24:05;7.43;;;2.35;;
68985;SDS011;56035;37.534;-122.308;2023-03-19T02:27:52;3.55;;;1.98;;
68985;SDS011;56035;37.534;-122.308;2023-03-19T02:31:18;3.72;;;1.95;;
68985;SDS011;56035;37.534;-122.308;2023-03-19T02:34:43;3.90;;;1.90;;
68985;SDS011;56035;37.534;-122.308;2023-03-19T02:38:09;3.03;;;1.48;;
68985;SDS011;56035;37.534;-122.308;2023-03-19T02:41:40;3.08;;;1.60;;
68985;SDS011;56035;37.534;-122.308;2023-03-19T02:45:05;4.78;;;2.00;;
68985;SDS011;56035;37.534;-122.308;2023-03-19T02:48:32;4.97;;;2.28;;
68985;SDS011;56035;37.534;-122.308;2023-03-19T02:51:57;5.93;;;1.73;;
68985;SDS011;56035;37.534;-122.308;2023-03-19T02:55:22;3.20;;;1.70;;
68985;SDS011;56035;37.534;-122.308;2023-03-19T02:58:47;2.95;;;1.40;;
68985;SDS011;56035;37.534;-122.308;2023-03-19T03:02:12;4.22;;;1.52;;
68985;SDS011;56035;37.534;-122.308;2023-03-19T03:05:37;3.90;;;1.83;;
68985;SDS011;56035;37.534;-122.308;2023-03-19T03:09:02;3.50;;;1.60;;
68985;SDS011;56035;37.534;-122.308;2023-03-19T03:12:27;4.67;;;1.60;;
68985;SDS011;56035;37.534;-122.308;2023-03-19T03:15:52;2.88;;;1.35;;
68985;SDS011;56035;37.534;-122.308;2023-03-19T03:19:17;5.35;;;1.40;;
68985;SDS011;56035;37.534;-122.308;2023-03-19T03:22:44;5.50;;;1.83;;
68985;SDS011;56035;37.534;-122.308;2023-03-19T03:26:09;4.38;;;1.40;;
68985;SDS011;56035;37.534;-122.308;2023-03-19T03:29:33;3.40;;;1.37;;
68985;SDS011;56035;37.534;-122.308;2023-03-19T03:32:58;3.03;;;1.20;;
68985;SDS011;56035;37.534;-122.308;2023-03-19T03:36:23;2.83;;;1.60;;
68985;SDS011;56035;37.534;-122.308;2023-03-19T03:39:48;4.50;;;1.30;;
68985;SDS011;56035;37.534;-122.308;2023-03-19T03:43:17;4.13;;;1.50;;
68985;SDS011;56035;37.534;-122.308;2023-03-19T03:46:41;3.10;;;1.30;;
68985;SDS011;56035;37.534;-122.308;2023-03-19T03:50:06;3.13;;;1.30;;
68985;SDS011;56035;37.534;-122.308;2023-03-19T03:53:31;2.88;;;1.45;;
68985;SDS011;56035;37.534;-122.308;2023-03-19T03:56:56;4.18;;;1.35;;
68985;SDS011;56035;37.534;-122.308;2023-03-19T04:00:21;3.90;;;1.30;;
68985;SDS011;56035;37.534;-122.308;2023-03-19T04:03:46;3.53;;;1.20;;
68985;SDS011;56035;37.534;-122.308;2023-03-19T04:07:10;3.43;;;1.43;;
68985;SDS011;56035;37.534;-122.308;2023-03-19T04:10:39;3.70;;;1.60;;
68985;SDS011;56035;37.534;-122.308;2023-03-19T04:14:05;3.73;;;1.70;;
68985;SDS011;56035;37.534;-122.308;2023-03-19T04:17:32;5.83;;;1.60;;
68985;SDS011;56035;37.534;-122.308;2023-03-19T04:20:56;4.05;;;1.90;;
68985;SDS011;56035;37.534;-122.308;2023-03-19T04:24:21;5.23;;;2.00;;
68985;SDS011;56035;37.534;-122.308;2023-03-19T04:27:46;5.70;;;1.87;;
68985;SDS011;56035;37.534;-122.308;2023-03-19T04:31:11;3.37;;;2.00;;
68985;SDS011;56035;37.534;-122.308;2023-03-19T04:34:36;5.13;;;2.10;;
68985;SDS011;56035;37.534;-122.308;2023-03-19T04:38:01;3.53;;;1.40;;
68985;SDS011;56035;37.534;-122.308;2023-03-19T04:41:26;3.90;;;1.50;;
68985;SDS011;56035;37.534;-122.308;2023-03-19T04:44:51;6.50;;;2.60;;
68985;SDS011;56035;37.534;-122.308;2023-03-19T04:48:15;5.03;;;2.13;;
68985;SDS011;56035;37.534;-122.308;2023-03-19T04:51:40;4.63;;;2.17;;
68985;SDS011;56035;37.534;-122.308;2023-03-19T04:55:25;5.07;;;2.37;;
68985;SDS011;56035;37.534;-122.308;2023-03-19T04:58:52;6.10;;;2.57;;
68985;SDS011;56035;37.534;-122.308;2023-03-19T05:02:16;4.23;;;1.60;;
68985;SDS011;56035;37.534;-122.308;2023-03-19T05:05:41;5.17;;;1.40;;
68985;SDS011;56035;37.534;-122.308;2023-03-19T05:09:06;4.43;;;1.70;;
68985;SDS011;56035;37.534;-122.308;2023-03-19T05:12:32;8.23;;;1.60;;
68985;SDS011;56035;37.534;-122.308;2023-03-19T05:15:57;3.13;;;1.40;;
68985;SDS011;56035;37.534;-122.308;2023-03-19T05:19:21;5.07;;;1.40;;
68985;SDS011;56035;37.534;-122.308;2023-03-19T05:22:48;6.20;;;1.40;;
68985;SDS011;56035;37.534;-122.308;2023-03-19T05:26:16;4.73;;;1.50;;
68985;SDS011;56035;37.534;-122.308;2023-03-19T05:29:41;3.87;;;1.20;;
68985;SDS011;56035;37.534;-122.308;2023-03-19T05:33:06;4.03;;;1.50;;
68985;SDS011;56035;37.534;-122.308;2023-03-19T05:36:32;8.57;;;2.17;;
68985;SDS011;56035;37.534;-122.308;2023-03-19T05:39:57;8.40;;;2.20;;
68985;SDS011;56035;37.534;-122.308;2023-03-19T05:43:27;7.15;;;2.40;;
68985;SDS011;56035;37.534;-122.308;2023-03-19T05:46:52;14.37;;;3.00;;
68985;SDS011;56035;37.534;-122.308;2023-03-19T05:50:17;7.93;;;2.67;;
68985;SDS011;56035;37.534;-122.308;2023-03-19T05:53:41;7.60;;;2.57;;
68985;SDS011;56035;37.534;-122.308;2023-03-19T05:57:06;8.33;;;2.47;;
68985;SDS011;56035;37.534;-122.308;2023-03-19T06:00:32;8.23;;;2.63;;
68985;SDS011;56035;37.534;-122.308;2023-03-19T06:03:56;9.10;;;2.20;;
68985;SDS011;56035;37.534;-122.308;2023-03-19T06:07:21;9.60;;;2.43;;
68985;SDS011;56035;37.534;-122.308;2023-03-19T06:10:47;7.73;;;2.73;;
68985;SDS011;56035;37.534;-122.308;2023-03-19T06:14:12;9.57;;;2.40;;
68985;SDS011;56035;37.534;-122.308;2023-03-19T06:17:37;6.90;;;2.30;;
68985;SDS011;56035;37.534;-122.308;2023-03-19T06:21:02;5.70;;;2.13;;
68985;SDS011;56035;37.534;-122.308;2023-03-19T06:24:27;5.87;;;2.40;;
68985;SDS011;56035;37.534;-122.308;2023-03-19T06:27:52;7.53;;;2.50;;
68985;SDS011;56035;37.534;-122.308;2023-03-19T06:31:17;5.93;;;2.33;;
68985;SDS011;56035;37.534;-122.308;2023-03-19T06:34:41;8.87;;;2.87;;
68985;SDS011;56035;37.534;-122.308;2023-03-19T06:38:06;5.77;;;2.03;;
68985;SDS011;56035;37.534;-122.308;2023-03-19T06:41:31;7.20;;;2.50;;
68985;SDS011;56035;37.534;-122.308;2023-03-19T06:44:56;6.77;;;2.10;;
68985;SDS011;56035;37.534;-122.308;2023-03-19T06:48:21;6.97;;;2.50;;
68985;SDS011;56035;37.534;-122.308;2023-03-19T06:51:46;7.03;;;2.27;;
68985;SDS011;56035;37.534;-122.308;2023-03-19T06:55:10;6.40;;;2.33;;
68985;SDS011;56035;37.534;-122.308;2023-03-19T06:58:35;6.33;;;2.10;;
68985;SDS011;56035;37.534;-122.308;2023-03-19T07:02:00;7.83;;;2.20;;
68985;SDS011;56035;37.534;-122.308;2023-03-19T07:05:25;5.50;;;2.10;;
68985;SDS011;56035;37.534;-122.308;2023-03-19T07:08:50;6.97;;;2.10;;
68985;SDS011;56035;37.534;-122.308;2023-03-19T07:12:14;5.77;;;1.87;;
68985;SDS011;56035;37.534;-122.308;2023-03-19T07:15:39;6.37;;;2.20;;
68985;SDS011;56035;37.534;-122.308;2023-03-19T07:19:04;8.17;;;2.27;;
68985;SDS011;56035;37.534;-122.308;2023-03-19T07:22:29;6.50;;;2.63;;
68985;SDS011;56035;37.534;-122.308;2023-03-19T07:25:54;8.53;;;2.27;;
68985;SDS011;56035;37.534;-122.308;2023-03-19T07:29:18;6.13;;;2.37;;
68985;SDS011;56035;37.534;-122.308;2023-03-19T07:32:43;6.13;;;2.50;;
68985;SDS011;56035;37.534;-122.308;2023-03-19T07:36:08;5.27;;;2.20;;
68985;SDS011;56035;37.534;-122.308;2023-03-19T07:39:33;6.50;;;2.20;;
68985;SDS011;56035;37.534;-122.308;2023-03-19T07:42:58;4.83;;;1.97;;
68985;SDS011;56035;37.534;-122.308;2023-03-19T07:46:22;5.03;;;1.80;;
68985;SDS011;56035;37.534;-122.308;2023-03-19T07:49:47;7.43;;;2.50;;
68985;SDS011;56035;37.534;-122.308;2023-03-19T07:53:14;6.60;;;2.30;;
68985;SDS011;56035;37.534;-122.308;2023-03-19T07:56:39;6.20;;;2.13;;
68985;SDS011;56035;37.534;-122.308;2023-03-19T08:00:04;5.33;;;2.17;;
68985;SDS011;56035;37.534;-122.308;2023-03-19T08:03:29;6.00;;;2.17;;
68985;SDS011;56035;37.534;-122.308;2023-03-19T08:06:53;6.07;;;2.30;;
68985;SDS011;56035;37.534;-122.308;2023-03-19T08:10:18;3.93;;;2.23;;
68985;SDS011;56035;37.534;-122.308;2023-03-19T08:13:43;5.13;;;2.10;;
68985;SDS011;56035;37.534;-122.308;2023-03-19T08:17:07;8.20;;;2.40;;
68985;SDS011;56035;37.534;-122.308;2023-03-19T08:20:33;6.07;;;2.10;;
68985;SDS011;56035;37.534;-122.308;2023-03-19T08:23:58;7.10;;;2.13;;
68985;SDS011;56035;37.534;-122.308;2023-03-19T08:27:22;3.33;;;1.90;;
68985;SDS011;56035;37.534;-122.308;2023-03-19T08:30:48;7.40;;;2.20;;
68985;SDS011;56035;37.534;-122.308;2023-03-19T08:34:12;5.13;;;2.03;;
68985;SDS011;56035;37.534;-122.308;2023-03-19T08:37:38;5.20;;;2.07;;
68985;SDS011;56035;37.534;-122.308;2023-03-19T08:41:03;4.83;;;2.47;;
68985;SDS011;56035;37.534;-122.308;2023-03-19T08:44:28;4.57;;;2.13;;
68985;SDS011;56035;37.534;-122.308;2023-03-19T08:47:52;4.47;;;1.80;;
68985;SDS011;56035;37.534;-122.308;2023-03-19T08:51:18;4.17;;;1.90;;
68985;SDS011;56035;37.534;-122.308;2023-03-19T08:54:43;5.37;;;1.80;;
68985;SDS011;56035;37.534;-122.308;2023-03-19T08:58:08;6.17;;;2.20;;
68985;SDS011;56035;37.534;-122.308;2023-03-19T09:01:33;6.63;;;2.47;;
68985;SDS011;56035;37.534;-122.308;2023-03-19T09:04:58;6.33;;;1.67;;
68985;SDS011;56035;37.534;-122.308;2023-03-19T09:08:27;6.63;;;1.90;;
68985;SDS011;56035;37.534;-122.308;2023-03-19T09:11:52;4.63;;;2.03;;
68985;SDS011;56035;37.534;-122.308;2023-03-19T09:15:16;4.73;;;2.10;;
68985;SDS011;56035;37.534;-122.308;2023-03-19T09:18:41;3.80;;;1.83;;
68985;SDS011;56035;37.534;-122.308;2023-03-19T09:22:06;4.13;;;2.00;;
68985;SDS011;56035;37.534;-122.308;2023-03-19T09:25:31;4.27;;;2.07;;
68985;SDS011;56035;37.534;-122.308;2023-03-19T09:28:56;4.20;;;2.13;;
68985;SDS011;56035;37.534;-122.308;2023-03-19T09:32:20;4.77;;;2.33;;
68985;SDS011;56035;37.534;-122.308;2023-03-19T09:35:49;4.27;;;1.87;;
68985;SDS011;56035;37.534;-122.308;2023-03-19T09:39:14;6.00;;;2.50;;
68985;SDS011;56035;37.534;-122.308;2023-03-19T09:47:05;5.23;;;2.20;;
68985;SDS011;56035;37.534;-122.308;2023-03-19T09:50:37;4.70;;;2.20;;
68985;SDS011;56035;37.534;-122.308;2023-03-19T09:54:16;6.10;;;2.20;;
68985;SDS011;56035;37.534;-122.308;2023-03-19T09:57:45;8.00;;;2.60;;
68985;SDS011;56035;37.534;-122.308;2023-03-19T10:01:28;5.40;;;2.30;;
68985;SDS011;56035;37.534;-122.308;2023-03-19T10:05:24;7.27;;;2.90;;
68985;SDS011;56035;37.534;-122.308;2023-03-19T10:16:19;5.50;;;2.30;;
68985;SDS011;56035;37.534;-122.308;2023-03-19T10:27:22;4.37;;;2.53;;
68985;SDS011;56035;37.534;-122.308;2023-03-19T10:30:51;6.47;;;3.20;;
68985;SDS011;56035;37.534;-122.308;2023-03-19T10:45:40;5.80;;;2.73;;
68985;SDS011;56035;37.534;-122.308;2023-03-19T10:49:12;5.20;;;2.50;;
68985;SDS011;56035;37.534;-122.308;2023-03-19T10:52:42;6.90;;;2.50;;
68985;SDS011;56035;37.534;-122.308;2023-03-19T10:56:21;7.43;;;2.70;;
68985;SDS011;56035;37.534;-122.308;2023-03-19T11:00:17;4.38;;;2.53;;
68985;SDS011;56035;37.534;-122.308;2023-03-19T11:03:49;4.53;;;2.30;;
68985;SDS011;56035;37.534;-122.308;2023-03-19T11:07:31;6.70;;;2.87;;
68985;SDS011;56035;37.534;-122.308;2023-03-19T11:10:59;5.37;;;2.87;;
68985;SDS011;56035;37.534;-122.308;2023-03-19T11:14:37;11.10;;;3.10;;
68985;SDS011;56035;37.534;-122.308;2023-03-19T11:25:40;6.73;;;2.93;;
68985;SDS011;56035;37.534;-122.308;2023-03-19T11:29:05;6.33;;;3.17;;
68985;SDS011;56035;37.534;-122.308;2023-03-19T11:36:28;7.50;;;3.97;;
68985;SDS011;56035;37.534;-122.308;2023-03-19T11:40:05;7.37;;;3.97;;
68985;SDS011;56035;37.534;-122.308;2023-03-19T11:54:51;7.17;;;3.03;;
68985;SDS011;56035;37.534;-122.308;2023-03-19T12:10:19;9.30;;;3.17;;
68985;SDS011;56035;37.534;-122.308;2023-03-19T12:17:26;10.27;;;3.67;;
68985;SDS011;56035;37.534;-122.308;2023-03-19T12:21:04;5.53;;;3.17;;
68985;SDS011;56035;37.534;-122.308;2023-03-19T12:35:41;8.73;;;3.40;;
68985;SDS011;56035;37.534;-122.308;2023-03-19T12:39:28;6.93;;;3.37;;
68985;SDS011;56035;37.534;-122.308;2023-03-19T12:43:00;6.57;;;3.20;;
68985;SDS011;56035;37.534;-122.308;2023-03-19T12:46:38;7.40;;;3.73;;
68985;SDS011;56035;37.534;-122.308;2023-03-19T12:50:05;7.37;;;3.50;;
68985;SDS011;56035;37.534;-122.308;2023-03-19T12:53:47;6.17;;;3.13;;
68985;SDS011;56035;37.534;-122.308;2023-03-19T13:01:19;7.20;;;3.92;;
68985;SDS011;56035;37.534;-122.308;2023-03-19T13:05:20;8.27;;;3.70;;
68985;SDS011;56035;37.534;-122.308;2023-03-19T13:08:54;6.00;;;3.40;;
68985;SDS011;56035;37.534;-122.308;2023-03-19T13:12:29;6.80;;;3.43;;
68985;SDS011;56035;37.534;-122.308;2023-03-19T13:20:30;8.90;;;3.43;;
68985;SDS011;56035;37.534;-122.308;2023-03-19T13:24:10;9.07;;;3.67;;
68985;SDS011;56035;37.534;-122.308;2023-03-19T13:27:41;6.90;;;3.53;;
68985;SDS011;56035;37.534;-122.308;2023-03-19T13:31:20;6.57;;;3.60;;
68985;SDS011;56035;37.534;-122.308;2023-03-19T13:33:59;8.10;;;3.97;;
68985;SDS011;56035;37.534;-122.308;2023-03-19T13:36:28;7.80;;;4.40;;
68985;SDS011;56035;37.534;-122.308;2023-03-19T13:38:56;11.27;;;4.93;;
68985;SDS011;56035;37.534;-122.308;2023-03-19T13:41:46;9.30;;;4.30;;
68985;SDS011;56035;37.534;-122.308;2023-03-19T13:55:30;8.77;;;4.13;;
68985;SDS011;56035;37.534;-122.308;2023-03-19T14:03:21;9.98;;;4.53;;
68985;SDS011;56035;37.534;-122.308;2023-03-19T14:05:50;8.67;;;4.10;;
68985;SDS011;56035;37.534;-122.308;2023-03-19T14:08:22;6.67;;;4.10;;
68985;SDS011;56035;37.534;-122.308;2023-03-19T14:10:52;7.80;;;4.53;;
68985;SDS011;56035;37.534;-122.308;2023-03-19T14:16:00;9.13;;;4.40;;
68985;SDS011;56035;37.534;-122.308;2023-03-19T14:18:41;8.47;;;4.30;;
68985;SDS011;56035;37.534;-122.308;2023-03-19T14:21:10;7.93;;;4.70;;
68985;SDS011;56035;37.534;-122.308;2023-03-19T14:23:41;10.00;;;4.70;;
68985;SDS011;56035;37.534;-122.308;2023-03-19T14:26:24;9.33;;;4.50;;
68985;SDS011;56035;37.534;-122.308;2023-03-19T14:29:05;9.27;;;4.67;;
68985;SDS011;56035;37.534;-122.308;2023-03-19T14:34:20;10.30;;;4.50;;
68985;SDS011;56035;37.534;-122.308;2023-03-19T14:39:28;8.07;;;3.93;;
68985;SDS011;56035;37.534;-122.308;2023-03-19T14:48:19;6.90;;;3.27;;
68985;SDS011;56035;37.534;-122.308;2023-03-19T14:57:04;6.00;;;3.03;;
68985;SDS011;56035;37.534;-122.308;2023-03-19T14:59:38;7.00;;;3.10;;
68985;SDS011;56035;37.534;-122.308;2023-03-19T15:02:05;5.90;;;3.17;;
68985;SDS011;56035;37.534;-122.308;2023-03-19T15:04:45;7.05;;;3.20;;
68985;SDS011;56035;37.534;-122.308;2023-03-19T15:07:20;6.63;;;2.80;;
68985;SDS011;56035;37.534;-122.308;2023-03-19T15:09:54;6.63;;;3.00;;
68985;SDS011;56035;37.534;-122.308;2023-03-19T15:18:11;5.53;;;2.92;;
68985;SDS011;56035;37.534;-122.308;2023-03-19T15:20:44;5.30;;;2.77;;
68985;SDS011;56035;37.534;-122.308;2023-03-19T15:23:21;5.97;;;2.97;;
68985;SDS011;56035;37.534;-122.308;2023-03-19T15:25:52;4.10;;;2.50;;
68985;SDS011;56035;37.534;-122.308;2023-03-19T15:28:46;6.10;;;2.70;;
68985;SDS011;56035;37.534;-122.308;2023-03-19T15:31:13;5.22;;;2.90;;
68985;SDS011;56035;37.534;-122.308;2023-03-19T15:33:40;5.60;;;2.67;;
68985;SDS011;56035;37.534;-122.308;2023-03-19T15:38:37;4.87;;;2.53;;
68985;SDS011;56035;37.534;-122.308;2023-03-19T15:41:09;4.90;;;2.80;;
68985;SDS011;56035;37.534;-122.308;2023-03-19T15:47:05;5.67;;;2.40;;
68985;SDS011;56035;37.534;-122.308;2023-03-19T15:50:43;5.73;;;2.70;;
68985;SDS011;56035;37.534;-122.308;2023-03-19T15:54:15;4.27;;;2.40;;
68985;SDS011;56035;37.534;-122.308;2023-03-19T15:57:41;4.20;;;2.40;;
68985;SDS011;56035;37.534;-122.308;2023-03-19T16:01:10;4.87;;;2.67;;
68985;SDS011;56035;37.534;-122.308;2023-03-19T16:04:47;4.83;;;2.67;;
68985;SDS011;56035;37.534;-122.308;2023-03-19T16:08:20;4.90;;;2.67;;
68985;SDS011;56035;37.534;-122.308;2023-03-19T16:11:46;5.95;;;2.70;;
68985;SDS011;56035;37.534;-122.308;2023-03-19T16:15:47;4.87;;;2.87;;
68985;SDS011;56035;37.534;-122.308;2023-03-19T16:19:05;7.93;;;3.05;;
68985;SDS011;56035;37.534;-122.308;2023-03-19T16:22:30;6.13;;;3.10;;
68985;SDS011;56035;37.534;-122.308;2023-03-19T16:26:06;4.93;;;2.70;;
68985;SDS011;56035;37.534;-122.308;2023-03-19T16:29:37;6.17;;;2.70;;
68985;SDS011;56035;37.534;-122.308;2023-03-19T16:33:10;7.83;;;3.00;;
68985;SDS011;56035;37.534;-122.308;2023-03-19T16:37:02;6.30;;;3.07;;
68985;SDS011;56035;37.534;-122.308;2023-03-19T16:44:39;5.03;;;2.83;;
68985;SDS011;56035;37.534;-122.308;2023-03-19T16:48:06;6.50;;;3.10;;
68985;SDS011;56035;37.534;-122.308;2023-03-19T16:51:31;6.00;;;3.00;;
68985;SDS011;56035;37.534;-122.308;2023-03-19T16:54:57;6.00;;;3.13;;
68985;SDS011;56035;37.534;-122.308;2023-03-19T16:58:25;5.27;;;2.87;;
68985;SDS011;56035;37.534;-122.308;2023-03-19T17:01:53;5.72;;;3.00;;
68985;SDS011;56035;37.534;-122.308;2023-03-19T17:05:22;5.13;;;2.83;;
68985;SDS011;56035;37.534;-122.308;2023-03-19T17:08:47;4.43;;;2.60;;
68985;SDS011;56035;37.534;-122.308;2023-03-19T17:12:13;3.40;;;2.20;;
68985;SDS011;56035;37.534;-122.308;2023-03-19T17:15:42;3.70;;;1.63;;
68985;SDS011;56035;37.534;-122.308;2023-03-19T17:19:16;3.35;;;1.80;;
68985;SDS011;56035;37.534;-122.308;2023-03-19T17:22:46;3.17;;;1.50;;
68985;SDS011;56035;37.534;-122.308;2023-03-19T17:26:12;4.07;;;1.80;;
68985;SDS011;56035;37.534;-122.308;2023-03-19T17:29:39;2.37;;;1.13;;
68985;SDS011;56035;37.534;-122.308;2023-03-19T17:33:04;3.70;;;1.20;;
68985;SDS011;56035;37.534;-122.308;2023-03-19T17:36:31;2.03;;;1.00;;
68985;SDS011;56035;37.534;-122.308;2023-03-19T17:39:56;2.20;;;1.07;;
68985;SDS011;56035;37.534;-122.308;2023-03-19T17:43:21;2.00;;;0.90;;
68985;SDS011;56035;37.534;-122.308;2023-03-19T17:46:46;2.10;;;0.90;;
68985;SDS011;56035;37.534;-122.308;2023-03-19T17:50:17;2.70;;;1.00;;
68985;SDS011;56035;37.534;-122.308;2023-03-19T17:53:43;2.40;;;1.30;;
68985;SDS011;56035;37.534;-122.308;2023-03-19T17:57:13;1.70;;;1.10;;
68985;SDS011;56035;37.534;-122.308;2023-03-19T18:00:42;2.37;;;0.87;;
68985;SDS011;56035;37.534;-122.308;2023-03-19T18:04:11;2.50;;;0.90;;
68985;SDS011;56035;37.534;-122.308;2023-03-19T18:07:42;1.63;;;0.90;;
68985;SDS011;56035;37.534;-122.308;2023-03-19T18:11:06;2.00;;;0.90;;
68985;SDS011;56035;37.534;-122.308;2023-03-19T18:14:31;1.67;;;0.80;;
68985;SDS011;56035;37.534;-122.308;2023-03-19T18:17:57;2.27;;;0.90;;
68985;SDS011;56035;37.534;-122.308;2023-03-19T18:21:26;4.53;;;1.80;;
68985;SDS011;56035;37.534;-122.308;2023-03-19T18:24:51;2.97;;;1.40;;
68985;SDS011;56035;37.534;-122.308;2023-03-19T18:28:16;3.10;;;1.50;;
68985;SDS011;56035;37.534;-122.308;2023-03-19T18:31:41;1.47;;;1.00;;
68985;SDS011;56035;37.534;-122.308;2023-03-19T18:35:17;2.20;;;1.00;;
68985;SDS011;56035;37.534;-122.308;2023-03-19T18:38:45;2.13;;;0.80;;
68985;SDS011;56035;37.534;-122.308;2023-03-19T18:42:13;2.03;;;0.90;;
68985;SDS011;56035;37.534;-122.308;2023-03-19T18:45:38;1.10;;;0.60;;
68985;SDS011;56035;37.534;-122.308;2023-03-19T18:52:57;1.70;;;0.90;;
68985;SDS011;56035;37.534;-122.308;2023-03-19T18:56:26;2.30;;;1.03;;
68985;SDS011;56035;37.534;-122.308;2023-03-19T18:59:52;1.45;;;0.50;;
68985;SDS011;56035;37.534;-122.308;2023-03-19T19:03:19;1.93;;;0.80;;
68985;SDS011;56035;37.534;-122.308;2023-03-19T19:06:44;1.20;;;0.53;;
68985;SDS011;56035;37.534;-122.308;2023-03-19T19:10:09;1.10;;;0.50;;
68985;SDS011;56035;37.534;-122.308;2023-03-19T19:13:37;1.97;;;0.40;;
68985;SDS011;56035;37.534;-122.308;2023-03-19T19:17:02;0.60;;;0.40;;
68985;SDS011;56035;37.534;-122.308;2023-03-19T19:20:45;0.90;;;0.30;;
68985;SDS011;56035;37.534;-122.308;2023-03-19T19:24:10;0.70;;;0.30;;
68985;SDS011;56035;37.534;-122.308;2023-03-19T19:27:40;2.22;;;0.70;;
68985;SDS011;56035;37.534;-122.308;2023-03-19T19:31:05;1.63;;;0.63;;
68985;SDS011;56035;37.534;-122.308;2023-03-19T19:34:31;0.90;;;0.30;;
68985;SDS011;56035;37.534;-122.308;2023-03-19T19:37:56;0.93;;;0.33;;
68985;SDS011;56035;37.534;-122.308;2023-03-19T19:41:22;1.20;;;0.30;;
68985;SDS011;56035;37.534;-122.308;2023-03-19T19:44:54;0.77;;;0.30;;
68985;SDS011;56035;37.534;-122.308;2023-03-19T19:48:24;1.07;;;0.30;;
68985;SDS011;56035;37.534;-122.308;2023-03-19T19:51:49;0.80;;;0.47;;
68985;SDS011;56035;37.534;-122.308;2023-03-19T19:55:14;0.90;;;0.30;;
68985;SDS011;56035;37.534;-122.308;2023-03-19T19:58:44;0.68;;;0.38;;
68985;SDS011;56035;37.534;-122.308;2023-03-19T20:02:20;1.50;;;0.40;;
68985;SDS011;56035;37.534;-122.308;2023-03-19T20:05:50;0.47;;;0.20;;
68985;SDS011;56035;37.534;-122.308;2023-03-19T20:09:15;0.97;;;0.30;;
68985;SDS011;56035;37.534;-122.308;2023-03-19T20:12:40;0.70;;;0.30;;
68985;SDS011;56035;37.534;-122.308;2023-03-19T20:16:08;0.57;;;0.33;;
68985;SDS011;56035;37.534;-122.308;2023-03-19T20:19:38;0.40;;;0.30;;
68985;SDS011;56035;37.534;-122.308;2023-03-19T20:23:02;0.70;;;0.20;;
68985;SDS011;56035;37.534;-122.308;2023-03-19T20:26:27;0.53;;;0.20;;
68985;SDS011;56035;37.534;-122.308;2023-03-19T20:29:56;0.60;;;0.20;;
68985;SDS011;56035;37.534;-122.308;2023-03-19T20:33:21;1.37;;;0.30;;
68985;SDS011;56035;37.534;-122.308;2023-03-19T20:36:46;0.20;;;0.15;;
68985;SDS011;56035;37.534;-122.308;2023-03-19T20:40:12;0.20;;;0.10;;
68985;SDS011;56035;37.534;-122.308;2023-03-19T20:43:44;0.60;;;0.20;;
68985;SDS011;56035;37.534;-122.308;2023-03-19T20:47:17;0.60;;;0.37;;
68985;SDS011;56035;37.534;-122.308;2023-03-19T20:50:42;0.52;;;0.20;;
68985;SDS011;56035;37.534;-122.308;2023-03-19T20:54:07;1.95;;;0.60;;
68985;SDS011;56035;37.534;-122.308;2023-03-19T20:57:37;1.05;;;0.20;;
68985;SDS011;56035;37.534;-122.308;2023-03-19T21:01:02;0.57;;;0.20;;
68985;SDS011;56035;37.534;-122.308;2023-03-19T21:04:27;0.45;;;0.30;;
68985;SDS011;56035;37.534;-122.308;2023-03-19T21:08:02;0.43;;;0.30;;
68985;SDS011;56035;37.534;-122.308;2023-03-19T21:11:45;1.10;;;0.20;;
68985;SDS011;56035;37.534;-122.308;2023-03-19T21:15:12;2.10;;;0.50;;
68985;SDS011;56035;37.534;-122.308;2023-03-19T21:18:39;0.50;;;0.20;;
68985;SDS011;56035;37.534;-122.308;2023-03-19T21:22:07;1.33;;;0.30;;
68985;SDS011;56035;37.534;-122.308;2023-03-19T21:25:52;1.17;;;0.30;;
68985;SDS011;56035;37.534;-122.308;2023-03-19T21:29:20;0.63;;;0.22;;
68985;SDS011;56035;37.534;-122.308;2023-03-19T21:32:47;1.23;;;0.30;;
68985;SDS011;56035;37.534;-122.308;2023-03-19T21:36:13;1.20;;;0.35;;
68985;SDS011;56035;37.534;-122.308;2023-03-19T21:39:40;0.60;;;0.20;;
68985;SDS011;56035;37.534;-122.308;2023-03-19T21:43:04;0.52;;;0.17;;
68985;SDS011;56035;37.534;-122.308;2023-03-19T21:46:35;0.80;;;0.30;;
68985;SDS011;56035;37.534;-122.308;2023-03-19T21:50:00;0.93;;;0.20;;
68985;SDS011;56035;37.534;-122.308;2023-03-19T21:53:26;0.68;;;0.20;;
68985;SDS011;56035;37.534;-122.308;2023-03-19T21:56:51;0.75;;;0.20;;